Sandy Hook, Virginia
Current Conditions -  °F | °C
As of 4:35 AM on Monday 24 Nov 2014 (Local Time) from K7W4 Reporting Station
Overcast Overcast  
Wind Chill: 65°   Ceiling: 6000
Heat Index: 65°   Visibility: 10mi
Dew Point: 60°   Wind: 7mph
Humidity: 86%   Direction: 180°S
Pressure: 29.67"   Gusts: 18mph
Location:  37.75°N, 77.91°W
Report Text: K7W4 240935Z AUTO 18006G16KT 10SM SCT019 SCT024 OVC060 18/16 A2967 RMK AO1 P0002 T01810158
Loading
Personal Weather Stations






























Interactive Weather Map New forecast layout! Learn more

10-Day Weather Forecast

Advertisements
Track Severe Weather on mobile